createdAt,value
2022-07-30T02:42:15.708Z,99604.66
2022-07-30T02:44:45.632Z,99608.16
2022-07-30T02:47:16.856Z,99602.00
2022-07-30T02:49:45.251Z,99604.50
2022-07-30T02:52:14.146Z,99596.97
2022-07-30T02:54:43.181Z,99600.41
2022-07-30T02:57:11.444Z,99613.16
2022-07-30T02:59:41.219Z,99596.16
2022-07-30T03:02:10.418Z,99609.66
2022-07-30T03:04:39.181Z,99611.53
2022-07-30T03:07:08.641Z,99612.66
2022-07-30T03:09:50.969Z,99606.97
2022-07-30T03:12:19.978Z,99604.28
2022-07-30T03:14:46.890Z,99620.50
2022-07-30T03:17:16.481Z,99614.53
2022-07-30T03:19:46.130Z,99615.09
2022-07-30T03:22:15.153Z,99628.03
2022-07-30T03:24:44.471Z,99625.63
2022-07-30T03:27:11.742Z,99619.97
2022-07-30T03:29:39.759Z,99624.03
2022-07-30T03:32:07.217Z,99619.97
2022-07-30T03:34:35.100Z,99616.16
2022-07-30T03:37:05.558Z,99624.00
2022-07-30T03:39:35.020Z,99622.13
2022-07-30T03:42:03.230Z,99623.75
2022-07-30T03:44:31.207Z,99615.38
2022-07-30T03:46:59.690Z,99624.81
2022-07-30T03:49:27.998Z,99623.19
2022-07-30T03:51:56.673Z,99628.63
2022-07-30T03:54:23.849Z,99612.41
2022-07-30T03:56:50.691Z,99626.47
2022-07-30T03:59:17.803Z,99615.38
2022-07-30T04:01:44.843Z,99626.19
2022-07-30T04:04:12.254Z,99622.13
2022-07-30T04:06:43.203Z,99612.97
2022-07-30T04:09:11.885Z,99626.47
2022-07-30T04:11:41.655Z,99617.22
2022-07-30T04:14:09.406Z,99625.31
2022-07-30T04:16:58.174Z,99632.34
2022-07-30T04:19:37.546Z,99629.81
2022-07-30T04:22:06.383Z,99627.44
2022-07-30T04:24:34.634Z,99634.72
2022-07-30T04:27:02.755Z,99635.19
2022-07-30T04:29:29.908Z,99644.63
2022-07-30T04:31:57.115Z,99644.66
2022-07-30T04:34:24.066Z,99614.53
2022-07-30T04:36:50.827Z,99626.63
2022-07-30T04:39:17.608Z,99638.38
2022-07-30T04:41:48.837Z,99638.31
2022-07-30T04:44:16.423Z,99629.59
2022-07-30T04:46:43.223Z,99639.69
2022-07-30T04:49:11.948Z,99635.06
2022-07-30T04:51:39.584Z,99634.84
2022-07-30T04:54:15.448Z,99630.88
2022-07-30T04:56:53.345Z,99629.38
2022-07-30T04:59:23.740Z,99629.06
2022-07-30T05:01:52.565Z,99625.03
2022-07-30T05:04:22.727Z,99631.47
2022-07-30T05:06:50.221Z,99625.00
2022-07-30T05:09:17.643Z,99631.88
2022-07-30T05:11:51.409Z,99631.75
2022-07-30T05:14:18.321Z,99635.63
2022-07-30T05:16:45.064Z,99624.22
2022-07-30T05:19:12.108Z,99636.81
2022-07-30T05:21:38.915Z,99637.97
2022-07-30T05:24:06.343Z,99648.94
2022-07-30T05:26:33.131Z,99654.31
2022-07-30T05:29:00.084Z,99645.53
2022-07-30T05:31:27.010Z,99633.94
2022-07-30T05:34:00.150Z,99643.47
2022-07-30T05:36:29.495Z,99656.97
2022-07-30T05:38:56.232Z,99651.56
2022-07-30T05:41:32.390Z,99650.72
2022-07-30T05:44:00.876Z,99656.06
2022-07-30T05:46:28.367Z,99659.91
2022-07-30T05:48:55.249Z,99649.09
2022-07-30T05:51:22.507Z,99625.72
2022-07-30T05:53:49.567Z,99656.91
2022-07-30T05:56:16.495Z,99652.81
2022-07-30T05:58:43.661Z,99642.66
2022-07-30T06:01:10.522Z,99651.69
2022-07-30T06:03:38.887Z,99655.34
2022-07-30T06:06:07.337Z,99652.41
2022-07-30T06:08:34.564Z,99639.81
2022-07-30T06:11:01.398Z,99656.06
2022-07-30T06:13:28.346Z,99656.38
2022-07-30T06:15:55.159Z,99644.34
2022-07-30T06:18:23.468Z,99656.66
2022-07-30T06:20:52.409Z,99656.59
2022-07-30T06:23:19.706Z,99659.78
2022-07-30T06:25:48.322Z,99631.38
2022-07-30T06:28:36.607Z,99656.50
2022-07-30T06:31:02.896Z,99645.72
2022-07-30T06:33:30.104Z,99648.53
2022-07-30T06:35:56.876Z,99651.81
2022-07-30T06:38:23.726Z,99634.28
2022-07-30T06:40:50.542Z,99627.38
2022-07-30T06:43:19.163Z,99637.69
2022-07-30T06:45:46.085Z,99636.06
2022-07-30T06:48:20.447Z,99639.56
2022-07-30T06:50:47.273Z,99638.50
2022-07-30T06:53:14.083Z,99618.19
2022-07-30T06:55:40.933Z,99633.00
2022-07-30T06:58:07.798Z,99620.28
2022-07-30T07:00:34.528Z,99627.19
2022-07-30T07:03:01.374Z,99631.44
2022-07-30T07:05:29.219Z,99624.03
2022-07-30T07:07:59.592Z,99621.53
2022-07-30T07:10:27.309Z,99627.34
2022-07-30T07:12:55.115Z,99610.53
2022-07-30T07:15:37.213Z,99622.88
2022-07-30T07:18:05.925Z,99613.34
2022-07-30T07:20:33.815Z,99613.03
2022-07-30T07:23:05.236Z,99622.50
2022-07-30T07:25:36.081Z,99616.44
2022-07-30T07:28:11.993Z,99616.97
2022-07-30T07:30:44.101Z,99611.72
2022-07-30T07:33:12.183Z,99594.78
2022-07-30T07:35:40.400Z,99606.03
2022-07-30T07:38:16.350Z,99611.28
2022-07-30T07:40:43.341Z,99602.81
2022-07-30T07:43:10.136Z,99600.28
2022-07-30T07:45:36.988Z,99606.47
2022-07-30T07:48:04.071Z,99601.31
2022-07-30T07:50:31.015Z,99601.56
2022-07-30T07:52:57.752Z,99590.72
2022-07-30T07:55:24.863Z,99596.50
2022-07-30T07:57:52.714Z,99608.44
2022-07-30T08:00:21.483Z,99594.31
2022-07-30T08:02:48.737Z,99604.66
2022-07-30T08:05:16.404Z,99603.78
2022-07-30T08:07:44.298Z,99605.63
2022-07-30T08:10:14.295Z,99602.66
2022-07-30T08:12:41.182Z,99604.00
2022-07-30T08:15:09.650Z,99591.25
2022-07-30T08:17:46.896Z,99598.53
2022-07-30T08:20:16.541Z,99588.56
2022-07-30T08:22:43.337Z,99593.72
2022-07-30T08:25:11.433Z,99588.28
2022-07-30T08:27:50.791Z,99590.03
2022-07-30T08:30:19.715Z,99580.47
2022-07-30T08:32:46.430Z,99572.19
2022-07-30T08:35:13.401Z,99574.66
2022-07-30T08:37:41.233Z,99564.53
2022-07-30T08:40:08.622Z,99563.69
2022-07-30T08:42:35.555Z,99573.53
2022-07-30T08:45:02.820Z,99564.41
2022-07-30T08:47:34.002Z,99568.44
2022-07-30T08:50:05.299Z,99562.03
2022-07-30T08:52:33.909Z,99553.59
2022-07-30T08:55:01.505Z,99557.84
2022-07-30T08:57:32.675Z,99567.75
2022-07-30T09:00:01.769Z,99570.31
2022-07-30T09:02:31.870Z,99555.03
2022-07-30T09:04:59.245Z,99542.22
2022-07-30T09:07:26.402Z,99555.38
2022-07-30T09:09:53.173Z,99543.72
2022-07-30T09:12:40.326Z,99546.28
2022-07-30T09:15:19.406Z,99505.13
2022-07-30T09:17:47.437Z,99540.56
2022-07-30T09:20:14.375Z,99541.75
2022-07-30T09:22:43.275Z,99534.06
2022-07-30T09:25:10.234Z,99533.06
2022-07-30T09:27:48.549Z,99521.06
2022-07-30T09:30:16.543Z,99526.56
2022-07-30T09:32:54.414Z,99525.72
2022-07-30T09:35:24.549Z,99514.06
2022-07-30T09:38:06.184Z,99518.34
2022-07-30T09:40:34.027Z,99508.03
2022-07-30T09:43:09.600Z,99512.88
2022-07-30T09:45:36.827Z,99508.88
2022-07-30T09:48:21.133Z,99512.63
2022-07-30T09:50:50.107Z,99500.22
2022-07-30T09:53:17.242Z,99516.38
2022-07-30T09:55:44.899Z,99509.59
2022-07-30T09:58:20.031Z,99510.31
2022-07-30T10:00:59.672Z,99510.63
2022-07-30T10:03:38.381Z,99500.13
2022-07-30T10:06:09.152Z,99508.00
2022-07-30T10:08:42.735Z,99508.63
2022-07-30T10:11:22.807Z,99493.38
2022-07-30T10:14:01.733Z,99497.53
2022-07-30T10:16:29.771Z,99500.25
2022-07-30T10:19:00.299Z,99488.31
2022-07-30T10:21:28.698Z,99494.88
2022-07-30T10:23:59.858Z,99483.75
2022-07-30T10:26:28.918Z,99484.91
2022-07-30T10:28:56.609Z,99482.72
2022-07-30T10:31:48.639Z,99463.16
2022-07-30T10:34:15.455Z,99474.63
2022-07-30T10:36:44.933Z,99473.56
2022-07-30T10:39:19.043Z,99471.56
2022-07-30T10:42:02.377Z,99466.81
2022-07-30T10:45:07.643Z,99466.78
2022-07-30T10:47:40.215Z,99465.84
2022-07-30T10:50:18.060Z,99458.22
2022-07-30T10:52:56.978Z,99456.91
2022-07-30T10:55:36.500Z,99431.34
2022-07-30T10:58:11.599Z,99447.69
2022-07-30T11:00:44.672Z,99447.72
2022-07-30T11:03:23.674Z,99451.22
2022-07-30T11:06:16.999Z,99443.69
2022-07-30T11:08:51.601Z,99438.88
2022-07-30T11:11:28.714Z,99441.19
2022-07-30T11:14:08.316Z,99435.28
2022-07-30T11:16:35.211Z,99432.56
2022-07-30T11:19:56.105Z,99439.41
2022-07-30T11:22:38.911Z,99436.50
2022-07-30T11:25:12.743Z,99437.28
2022-07-30T11:27:49.144Z,99424.69
2022-07-30T11:30:17.172Z,99418.06
2022-07-30T11:32:48.931Z,99425.75
2022-07-30T11:35:25.426Z,99418.88
2022-07-30T11:38:07.474Z,99410.63
2022-07-30T11:40:35.592Z,99415.72
2022-07-30T11:43:35.838Z,99410.00
2022-07-30T11:46:10.209Z,99406.50
2022-07-30T11:48:41.987Z,99401.69
2022-07-30T11:51:09.897Z,99409.31
2022-07-30T11:53:37.381Z,99397.09
2022-07-30T11:56:04.570Z,99396.78
2022-07-30T11:58:32.428Z,99398.44
2022-07-30T12:01:02.087Z,99386.44
2022-07-30T12:03:32.390Z,99381.56
2022-07-30T12:06:08.040Z,99387.97
2022-07-30T12:08:42.711Z,99388.81
2022-07-30T12:11:10.699Z,99385.34
2022-07-30T12:13:45.682Z,99384.94
2022-07-30T12:16:17.656Z,99350.81
2022-07-30T12:18:46.024Z,99375.13
2022-07-30T12:21:16.263Z,99372.47
2022-07-30T12:23:54.057Z,99352.88
2022-07-30T12:26:22.862Z,99370.28
2022-07-30T12:28:49.984Z,99363.59
2022-07-30T12:31:17.545Z,99348.78
2022-07-30T12:33:44.575Z,99352.78
2022-07-30T12:36:25.952Z,99353.53
2022-07-30T12:38:54.669Z,99352.34
2022-07-30T12:41:22.612Z,99343.97
2022-07-30T12:43:54.042Z,99353.38
2022-07-30T12:46:26.819Z,99337.63
2022-07-30T12:49:03.502Z,99335.25
2022-07-30T12:51:51.719Z,99314.91
2022-07-30T12:54:20.546Z,99326.63
2022-07-30T12:57:05.684Z,99326.75
2022-07-30T12:59:33.891Z,99318.34
2022-07-30T13:02:01.284Z,99311.47
2022-07-30T13:04:29.214Z,99312.84
2022-07-30T13:07:10.889Z,99319.81
2022-07-30T13:09:43.061Z,99311.97
2022-07-30T13:12:13.759Z,99311.06
2022-07-30T13:14:40.581Z,99300.50
2022-07-30T13:17:09.698Z,99317.13
2022-07-30T13:19:36.883Z,99303.41
2022-07-30T13:22:03.629Z,99292.69
2022-07-30T13:24:30.508Z,99280.31
2022-07-30T13:26:57.567Z,99303.59
2022-07-30T13:29:24.370Z,99301.47
2022-07-30T13:31:52.704Z,99295.03
2022-07-30T13:34:20.329Z,99290.69
2022-07-30T13:36:47.212Z,99283.53
2022-07-30T13:39:14.010Z,99286.84
2022-07-30T13:41:42.140Z,99275.41
2022-07-30T13:44:08.931Z,99282.31
2022-07-30T13:46:35.759Z,99266.91
2022-07-30T13:49:02.664Z,99264.28
2022-07-30T13:51:29.498Z,99257.63
2022-07-30T13:53:56.302Z,99266.41
2022-07-30T13:56:23.042Z,99248.03
2022-07-30T13:58:49.906Z,99257.94
2022-07-30T14:01:17.993Z,99259.38
2022-07-30T14:03:50.202Z,99243.72
2022-07-30T14:06:19.095Z,99246.75
2022-07-30T14:08:45.975Z,99238.09
2022-07-30T14:11:12.757Z,99230.16
2022-07-30T14:13:39.572Z,99226.91
2022-07-30T14:16:22.675Z,99242.94
2022-07-30T14:18:53.458Z,99225.44
2022-07-30T14:21:20.235Z,99212.63
2022-07-30T14:23:47.045Z,99215.19
2022-07-30T14:26:14.337Z,99221.91
2022-07-30T14:28:41.131Z,99228.28
2022-07-30T14:31:07.973Z,99228.00
2022-07-30T14:33:34.708Z,99211.69
2022-07-30T14:36:01.498Z,99209.56
2022-07-30T14:38:28.471Z,99211.81
2022-07-30T14:40:55.210Z,99209.38
2022-07-30T14:43:22.177Z,99197.41
2022-07-30T14:45:51.133Z,99195.56
2022-07-30T14:48:18.089Z,99215.56
2022-07-30T14:51:12.089Z,99209.03
2022-07-30T14:53:33.834Z,99214.00
2022-07-30T14:56:00.707Z,99204.47
2022-07-30T14:58:27.694Z,99210.09
2022-07-30T15:00:54.595Z,99226.31
2022-07-30T15:03:22.219Z,99218.31
2022-07-30T15:05:52.261Z,99214.13
2022-07-30T15:08:19.423Z,99213.00
2022-07-30T15:10:46.197Z,99218.03
2022-07-30T15:13:12.963Z,99225.94
2022-07-30T15:15:41.316Z,99204.69
2022-07-30T15:18:10.918Z,99209.31
2022-07-30T15:20:37.719Z,99219.59
2022-07-30T15:23:04.603Z,99223.97
2022-07-30T15:25:32.602Z,99214.84
2022-07-30T15:27:59.294Z,99218.31
2022-07-30T15:30:26.181Z,99217.72
2022-07-30T15:32:56.021Z,99212.09
2022-07-30T15:35:22.902Z,99206.00
2022-07-30T15:37:50.092Z,99208.41
2022-07-30T15:40:17.011Z,99213.81
2022-07-30T15:42:44.420Z,99208.78
2022-07-30T15:45:17.830Z,99217.91
2022-07-30T15:47:45.197Z,99215.03
2022-07-30T15:50:12.257Z,99199.53
2022-07-30T15:52:39.333Z,99228.56
2022-07-30T15:55:07.417Z,99231.41
2022-07-30T15:57:34.231Z,99210.38
2022-07-30T16:00:01.045Z,99216.50
2022-07-30T16:02:28.207Z,99212.94
2022-07-30T16:04:55.038Z,99227.75
2022-07-30T16:07:21.975Z,99182.97
2022-07-30T16:09:48.758Z,99227.88
2022-07-30T16:12:15.525Z,99235.22
2022-07-30T16:14:42.313Z,99234.59
2022-07-30T16:17:13.747Z,99220.50
2022-07-30T16:19:45.103Z,99236.09
2022-07-30T16:22:14.975Z,99233.72
2022-07-30T16:24:49.076Z,99234.97
2022-07-30T16:27:17.265Z,99237.91
2022-07-30T16:29:44.072Z,99231.84
2022-07-30T16:32:11.926Z,99240.03
2022-07-30T16:34:39.003Z,99242.50
2022-07-30T16:37:05.975Z,99236.19
2022-07-30T16:39:32.791Z,99237.88
2022-07-30T16:41:59.875Z,99234.88
2022-07-30T16:44:32.106Z,99226.88
2022-07-30T16:46:58.921Z,99245.34
2022-07-30T16:49:26.352Z,99253.31
2022-07-30T16:51:54.245Z,99248.84
2022-07-30T16:54:21.036Z,99251.00
2022-07-30T16:56:50.058Z,99242.72
2022-07-30T16:59:17.529Z,99244.94
2022-07-30T17:01:44.439Z,99246.09
2022-07-30T17:04:11.446Z,99245.72
2022-07-30T17:06:40.072Z,99246.25
2022-07-30T17:09:07.820Z,99244.25
2022-07-30T17:11:47.012Z,99169.22
2022-07-30T17:14:15.548Z,99253.53
2022-07-30T17:16:42.410Z,99252.41
2022-07-30T17:19:10.308Z,99255.25
2022-07-30T17:21:38.252Z,99255.75
2022-07-30T17:24:11.396Z,99270.50
2022-07-30T17:26:43.597Z,99268.69
2022-07-30T17:29:15.267Z,99261.34
2022-07-30T17:31:44.435Z,99272.69
2022-07-30T17:34:14.051Z,99281.34
2022-07-30T17:36:51.697Z,99287.28
2022-07-30T17:40:26.446Z,99280.53
2022-07-30T17:42:05.804Z,99294.66
2022-07-30T17:44:32.624Z,99299.69
2022-07-30T17:46:59.432Z,99288.22
2022-07-30T17:49:26.375Z,99291.34
2022-07-30T17:51:53.415Z,99289.75
2022-07-30T17:54:20.211Z,99304.31
2022-07-30T17:56:47.008Z,99304.50
2022-07-30T17:59:14.138Z,99316.38
2022-07-30T18:01:41.024Z,99319.56
2022-07-30T18:04:07.782Z,99326.63
2022-07-30T18:06:35.247Z,99324.28
2022-07-30T18:09:02.993Z,99309.38
2022-07-30T18:11:29.877Z,99334.50
2022-07-30T18:13:56.933Z,99327.50
2022-07-30T18:16:24.642Z,99323.13
2022-07-30T18:18:51.574Z,99324.53
2022-07-30T18:21:18.435Z,99333.34
2022-07-30T18:23:45.257Z,99334.06
2022-07-30T18:26:12.734Z,99342.72
2022-07-30T18:28:39.497Z,99344.13
2022-07-30T18:31:06.472Z,99338.66
2022-07-30T18:33:33.369Z,99339.56
2022-07-30T18:36:00.159Z,99351.16
2022-07-30T18:38:26.909Z,99338.47
2022-07-30T18:40:59.632Z,99352.13
2022-07-30T18:43:28.118Z,99356.00
2022-07-30T18:45:55.931Z,99358.91
2022-07-30T18:48:23.316Z,99358.56
2022-07-30T18:50:50.730Z,99371.25
2022-07-30T18:53:17.727Z,99368.34
2022-07-30T18:55:45.531Z,99363.66
2022-07-30T18:58:12.471Z,99347.25
2022-07-30T19:00:44.191Z,99346.94
2022-07-30T19:03:16.254Z,99365.44
2022-07-30T19:05:44.365Z,99367.81
2022-07-30T19:08:11.225Z,99373.59
2022-07-30T19:10:38.041Z,99372.88
2022-07-30T19:13:04.890Z,99381.88
2022-07-30T19:15:31.850Z,99381.22
2022-07-30T19:17:58.968Z,99385.66
2022-07-30T19:20:26.760Z,99385.81
2022-07-30T19:23:07.806Z,99394.63
2022-07-30T19:25:36.407Z,99392.66
2022-07-30T19:28:05.455Z,99395.59
2022-07-30T19:30:32.965Z,99392.81
2022-07-30T19:33:15.013Z,99392.69
2022-07-30T19:35:42.776Z,99396.34
2022-07-30T19:38:14.361Z,99390.88
2022-07-30T19:40:49.400Z,99391.72
2022-07-30T19:43:16.304Z,99373.66
2022-07-30T19:45:47.671Z,99385.47
2022-07-30T19:48:29.245Z,99386.47
2022-07-30T19:51:00.870Z,99390.44
2022-07-30T19:56:15.285Z,99396.09
2022-07-30T19:58:42.277Z,99390.19
2022-07-30T20:01:14.685Z,99383.88
2022-07-30T20:03:42.073Z,99382.19
2022-07-30T20:06:15.408Z,99380.81
2022-07-30T20:08:44.806Z,99394.72
2022-07-30T20:11:16.402Z,99381.78
2022-07-30T20:13:48.222Z,99382.91
2022-07-30T20:16:15.826Z,99386.72
2022-07-30T20:18:44.316Z,99383.00
2022-07-30T20:21:15.361Z,99388.53
2022-07-30T20:23:44.547Z,99385.63
2022-07-30T20:26:14.364Z,99387.53
2022-07-30T20:28:42.965Z,99381.50
2022-07-30T20:31:11.804Z,99381.31
2022-07-30T20:33:40.197Z,99381.00
2022-07-30T20:36:09.626Z,99375.47
2022-07-30T20:38:39.028Z,99368.91
2022-07-30T20:41:10.207Z,99378.28
2022-07-30T20:43:51.577Z,99368.81
2022-07-30T20:46:20.599Z,99363.16
2022-07-30T20:48:50.592Z,99365.63
2022-07-30T20:51:17.732Z,99364.00
2022-07-30T20:56:31.286Z,99358.56
2022-07-30T20:58:58.133Z,99363.41
2022-07-30T21:01:28.146Z,99371.72
2022-07-30T21:03:56.626Z,99374.66
2022-07-30T21:06:24.134Z,99378.31
2022-07-30T21:08:53.550Z,99374.66
2022-07-30T21:11:22.612Z,99378.22
2022-07-30T21:13:49.481Z,99366.81
2022-07-30T21:16:16.824Z,99375.38
2022-07-30T21:18:49.760Z,99381.91
2022-07-30T21:21:30.423Z,99385.75
2022-07-30T21:24:05.969Z,99384.72
2022-07-30T21:26:40.681Z,99382.81
2022-07-30T21:29:08.953Z,99389.56
2022-07-30T21:32:02.243Z,99393.38
2022-07-30T21:34:26.096Z,99385.53
2022-07-30T21:36:53.852Z,99394.00
2022-07-30T21:39:20.634Z,99395.31
2022-07-30T21:41:56.210Z,99393.22
2022-07-30T21:44:22.973Z,99387.31
2022-07-30T21:46:50.657Z,99395.41
2022-07-30T21:49:17.558Z,99386.81
2022-07-30T21:51:44.529Z,99391.72
2022-07-30T21:54:11.371Z,99393.91
2022-07-30T21:56:41.737Z,99391.94
2022-07-30T21:59:09.764Z,99397.97
2022-07-30T22:01:38.050Z,99390.00
2022-07-30T22:04:08.322Z,99401.09
2022-07-30T22:06:41.569Z,99399.13
2022-07-30T22:09:19.876Z,99401.13
2022-07-30T22:12:01.439Z,99410.50
2022-07-30T22:14:29.183Z,99397.78
2022-07-30T22:16:56.509Z,99400.50
2022-07-30T22:19:23.420Z,99405.88
2022-07-30T22:21:52.995Z,99402.06
2022-07-30T22:24:29.451Z,99405.06
2022-07-30T22:27:09.999Z,99401.69
2022-07-30T22:29:42.549Z,99406.03
2022-07-30T22:32:09.634Z,99400.88
2022-07-30T22:34:37.842Z,99404.13
2022-07-30T22:37:04.678Z,99390.53
2022-07-30T22:39:51.832Z,99388.50
2022-07-30T22:42:24.469Z,99392.22
2022-07-30T22:44:55.573Z,99393.09
2022-07-30T22:47:51.417Z,99400.28
2022-07-30T22:50:09.972Z,99411.66
2022-07-30T22:52:39.766Z,99418.03
2022-07-30T22:55:09.105Z,99412.75
2022-07-30T22:57:37.971Z,99410.31
2022-07-30T23:00:10.830Z,99411.44
2022-07-30T23:02:42.525Z,99415.03
2022-07-30T23:05:11.016Z,99408.91
2022-07-30T23:07:40.607Z,99403.53
2022-07-30T23:10:17.021Z,99405.56
2022-07-30T23:12:15.409Z,99395.50
2022-07-30T23:12:26.419Z,99360.88
2022-07-30T23:12:51.581Z,99408.72
2022-07-30T23:15:20.018Z,99408.09
2022-07-30T23:17:47.725Z,99400.94
2022-07-30T23:20:17.648Z,99402.41
2022-07-30T23:22:44.606Z,99394.50
2022-07-30T23:25:11.883Z,99390.97
2022-07-30T23:27:39.799Z,99392.00
2022-07-30T23:30:11.170Z,99397.94
2022-07-30T23:32:39.904Z,99397.13
2022-07-30T23:35:08.874Z,99401.44
2022-07-30T23:37:49.164Z,99404.97
2022-07-30T23:40:18.820Z,99389.84
2022-07-30T23:42:46.607Z,99387.41
2022-07-30T23:45:14.039Z,99377.72
2022-07-30T23:47:55.933Z,99381.16
2022-07-30T23:50:27.902Z,99383.94
2022-07-30T23:52:54.658Z,99393.09
2022-07-30T23:55:21.511Z,99383.94
2022-07-30T23:57:48.286Z,99372.00
